Pagrindinis puslapis
METAR-TAF:

METAR-TAF

Oro uostai :

Trumsė, Norvegija

platuma: 69-41N, ilguma: 018-55E, Aukštis: 1 m

Dabartinis oras

Ataskaita buvo paskelbta 21 minutes, ne 12:50 UTC
Vėjas 5 kt iš Pietvakarių, svyruoja nuo Pietų ir Vakarų/Pietvakarių
Temperatūra 2°C
Drėgmė 32%
Slėgis 1022 hPa
Matomumas 10 km arba daugiau
nėra debesų žemiau 1500 m ir nėra kamuolinių lietaus debesų

METAR: ENTC 201250Z 22005KT 180V240 CAVOK 02/M13 Q1022 NOSIG RMK WIND 2600FT 35003KT

Laikas: 15:11 (13:11 UTC)

Prognozė

Ataskaita buvo paskelbta 2 valandos ir 11 minutes, ne 11:00 UTC
Prognozė galioja nuo 20 metu 12 UTC su 21 metu 12 UTC
Vėjas 8 kt iš Pietų
Matomumas 10 km arba daugiau
nėra debesų žemiau 1500 m ir nėra kamuolinių lietaus debesų
Laikinai
nuo 20 metu 13 UTC su 20 metu 20 UTC
Vėjas 10 kt iš Šiaurės/Šiaurės Rytų

TAF: ENTC 201100Z 2012/2112 19008KT CAVOK TEMPO 2013/2020 03010KT

Orai ataskaitas ir orų prognozės (METAR, TAF).

turimą stotys yra geltonos ir raudonos taškus žemėlapyje.

Perkelti pele per norėdami pamatyti stoties vardą.

Tada spustelėkite, norėdami matyti oro stebėjimo ir prognozės.

Norėdami pakeisti žemėlapį: spustelėkite ant žalios mygtukų su juodo kryžiaus žemyn,; žalią mygtuką su brūkšneliu, jei norite nutolinti; arba žalių rodyklių gretimoms žemėlapius.


METAR-TAF: